sensor_id;sensor_type;location;lat;lon;timestamp;temperature;humidity
26537;DHT22;14204;51.262;5.488;2022-09-28T00:00:29;11.00;99.90
26537;DHT22;14204;51.262;5.488;2022-09-28T00:02:57;10.90;99.90
26537;DHT22;14204;51.262;5.488;2022-09-28T00:05:23;10.90;99.90
26537;DHT22;14204;51.262;5.488;2022-09-28T00:07:54;10.90;99.90
26537;DHT22;14204;51.262;5.488;2022-09-28T00:10:21;10.80;99.90
26537;DHT22;14204;51.262;5.488;2022-09-28T00:12:51;10.80;99.90
26537;DHT22;14204;51.262;5.488;2022-09-28T00:15:17;10.80;99.90
26537;DHT22;14204;51.262;5.488;2022-09-28T00:17:43;10.90;99.90
26537;DHT22;14204;51.262;5.488;2022-09-28T00:20:11;10.80;99.90
26537;DHT22;14204;51.262;5.488;2022-09-28T00:22:37;10.80;99.90
26537;DHT22;14204;51.262;5.488;2022-09-28T00:25:03;10.80;99.90
26537;DHT22;14204;51.262;5.488;2022-09-28T00:27:30;10.80;99.90
26537;DHT22;14204;51.262;5.488;2022-09-28T00:29:55;10.80;99.90
26537;DHT22;14204;51.262;5.488;2022-09-28T00:32:21;10.80;99.90
26537;DHT22;14204;51.262;5.488;2022-09-28T00:34:49;10.80;99.90
26537;DHT22;14204;51.262;5.488;2022-09-28T00:37:17;10.80;99.90
26537;DHT22;14204;51.262;5.488;2022-09-28T00:39:47;10.90;99.90
26537;DHT22;14204;51.262;5.488;2022-09-28T00:42:16;10.90;99.90
26537;DHT22;14204;51.262;5.488;2022-09-28T00:44:53;10.90;99.90
26537;DHT22;14204;51.262;5.488;2022-09-28T00:52:16;10.90;99.90
26537;DHT22;14204;51.262;5.488;2022-09-28T00:54:45;10.90;99.90
26537;DHT22;14204;51.262;5.488;2022-09-28T00:57:11;11.00;99.90
26537;DHT22;14204;51.262;5.488;2022-09-28T00:59:38;10.90;99.90
26537;DHT22;14204;51.262;5.488;2022-09-28T01:02:04;11.00;99.90
26537;DHT22;14204;51.262;5.488;2022-09-28T01:04:30;10.90;99.90
26537;DHT22;14204;51.262;5.488;2022-09-28T01:06:57;11.00;99.90
26537;DHT22;14204;51.262;5.488;2022-09-28T01:09:25;11.00;99.90
26537;DHT22;14204;51.262;5.488;2022-09-28T01:11:51;10.90;99.90
26537;DHT22;14204;51.262;5.488;2022-09-28T01:14:17;11.00;99.90
26537;DHT22;14204;51.262;5.488;2022-09-28T01:19:45;11.00;99.90
26537;DHT22;14204;51.262;5.488;2022-09-28T01:28:14;11.10;99.90
26537;DHT22;14204;51.262;5.488;2022-09-28T01:31:06;11.10;99.90
26537;DHT22;14204;51.262;5.488;2022-09-28T01:33:43;11.00;99.90
26537;DHT22;14204;51.262;5.488;2022-09-28T01:36:18;11.10;99.90
26537;DHT22;14204;51.262;5.488;2022-09-28T01:38:48;11.10;99.90
26537;DHT22;14204;51.262;5.488;2022-09-28T01:41:16;11.00;99.90
26537;DHT22;14204;51.262;5.488;2022-09-28T01:43:54;11.00;99.90
26537;DHT22;14204;51.262;5.488;2022-09-28T01:46:32;11.00;99.90
26537;DHT22;14204;51.262;5.488;2022-09-28T01:49:07;11.00;99.90
26537;DHT22;14204;51.262;5.488;2022-09-28T01:51:40;11.00;99.90
26537;DHT22;14204;51.262;5.488;2022-09-28T01:54:12;11.00;99.90
26537;DHT22;14204;51.262;5.488;2022-09-28T01:56:55;11.00;99.90
26537;DHT22;14204;51.262;5.488;2022-09-28T01:59:26;11.00;99.90
26537;DHT22;14204;51.262;5.488;2022-09-28T02:02:01;11.00;99.90
26537;DHT22;14204;51.262;5.488;2022-09-28T02:04:51;11.00;99.90
26537;DHT22;14204;51.262;5.488;2022-09-28T02:07:35;11.00;99.90
26537;DHT22;14204;51.262;5.488;2022-09-28T02:10:07;10.90;99.90
26537;DHT22;14204;51.262;5.488;2022-09-28T02:13:15;10.90;99.90
26537;DHT22;14204;51.262;5.488;2022-09-28T02:15:51;10.90;99.90
26537;DHT22;14204;51.262;5.488;2022-09-28T02:18:17;10.90;99.90
26537;DHT22;14204;51.262;5.488;2022-09-28T02:21:00;10.90;99.90
26537;DHT22;14204;51.262;5.488;2022-09-28T02:23:29;11.00;99.90
26537;DHT22;14204;51.262;5.488;2022-09-28T02:26:02;11.00;99.90
26537;DHT22;14204;51.262;5.488;2022-09-28T02:28:29;11.00;99.90
26537;DHT22;14204;51.262;5.488;2022-09-28T02:30:55;11.00;99.90
26537;DHT22;14204;51.262;5.488;2022-09-28T02:33:29;11.00;99.90
26537;DHT22;14204;51.262;5.488;2022-09-28T02:35:57;11.00;99.90
26537;DHT22;14204;51.262;5.488;2022-09-28T02:38:23;11.00;99.90
26537;DHT22;14204;51.262;5.488;2022-09-28T02:46:29;11.00;99.90
26537;DHT22;14204;51.262;5.488;2022-09-28T02:54:33;11.10;99.90
26537;DHT22;14204;51.262;5.488;2022-09-28T03:08:24;11.00;99.90
26537;DHT22;14204;51.262;5.488;2022-09-28T03:10:58;10.90;99.90
26537;DHT22;14204;51.262;5.488;2022-09-28T03:13:26;10.90;99.90
26537;DHT22;14204;51.262;5.488;2022-09-28T03:16:15;10.80;99.90
26537;DHT22;14204;51.262;5.488;2022-09-28T03:18:41;10.80;99.90
26537;DHT22;14204;51.262;5.488;2022-09-28T03:21:09;10.80;99.90
26537;DHT22;14204;51.262;5.488;2022-09-28T03:23:36;10.80;99.90
26537;DHT22;14204;51.262;5.488;2022-09-28T03:26:01;10.80;99.90
26537;DHT22;14204;51.262;5.488;2022-09-28T03:28:27;10.80;99.90
26537;DHT22;14204;51.262;5.488;2022-09-28T03:30:54;10.80;99.90
26537;DHT22;14204;51.262;5.488;2022-09-28T03:33:20;10.80;99.90
26537;DHT22;14204;51.262;5.488;2022-09-28T03:35:47;10.80;99.90
26537;DHT22;14204;51.262;5.488;2022-09-28T03:38:13;10.90;99.90
26537;DHT22;14204;51.262;5.488;2022-09-28T03:40:39;10.80;99.90
26537;DHT22;14204;51.262;5.488;2022-09-28T03:43:04;10.90;99.90
26537;DHT22;14204;51.262;5.488;2022-09-28T03:45:30;10.90;99.90
26537;DHT22;14204;51.262;5.488;2022-09-28T03:47:55;10.90;99.90
26537;DHT22;14204;51.262;5.488;2022-09-28T03:50:22;10.90;99.90
26537;DHT22;14204;51.262;5.488;2022-09-28T03:52:47;10.90;99.90
26537;DHT22;14204;51.262;5.488;2022-09-28T03:55:13;10.90;99.90
26537;DHT22;14204;51.262;5.488;2022-09-28T03:57:39;10.90;99.90
26537;DHT22;14204;51.262;5.488;2022-09-28T04:00:05;11.00;99.90
26537;DHT22;14204;51.262;5.488;2022-09-28T04:02:30;11.00;99.90
26537;DHT22;14204;51.262;5.488;2022-09-28T04:04:57;10.90;99.90
26537;DHT22;14204;51.262;5.488;2022-09-28T04:07:23;11.00;99.90
26537;DHT22;14204;51.262;5.488;2022-09-28T04:09:48;10.90;99.90
26537;DHT22;14204;51.262;5.488;2022-09-28T04:12:14;10.90;99.90
26537;DHT22;14204;51.262;5.488;2022-09-28T04:14:39;10.90;99.90
26537;DHT22;14204;51.262;5.488;2022-09-28T04:17:05;10.90;99.90
26537;DHT22;14204;51.262;5.488;2022-09-28T04:19:31;10.90;99.90
26537;DHT22;14204;51.262;5.488;2022-09-28T04:21:57;10.90;99.90
26537;DHT22;14204;51.262;5.488;2022-09-28T04:24:23;10.80;99.90
26537;DHT22;14204;51.262;5.488;2022-09-28T04:26:48;10.80;99.90
26537;DHT22;14204;51.262;5.488;2022-09-28T04:29:14;10.80;99.90
26537;DHT22;14204;51.262;5.488;2022-09-28T04:31:46;10.80;99.90
26537;DHT22;14204;51.262;5.488;2022-09-28T04:34:21;10.80;99.90
26537;DHT22;14204;51.262;5.488;2022-09-28T04:36:48;10.80;99.90
26537;DHT22;14204;51.262;5.488;2022-09-28T04:39:15;10.80;99.90
26537;DHT22;14204;51.262;5.488;2022-09-28T04:41:41;10.80;99.90
26537;DHT22;14204;51.262;5.488;2022-09-28T04:44:07;10.70;99.90
26537;DHT22;14204;51.262;5.488;2022-09-28T04:46:34;10.80;99.90
26537;DHT22;14204;51.262;5.488;2022-09-28T04:48:59;10.80;99.90
26537;DHT22;14204;51.262;5.488;2022-09-28T04:51:25;10.80;99.90
26537;DHT22;14204;51.262;5.488;2022-09-28T04:53:51;10.70;99.90
26537;DHT22;14204;51.262;5.488;2022-09-28T04:56:17;10.70;99.90
26537;DHT22;14204;51.262;5.488;2022-09-28T04:58:44;10.80;99.90
26537;DHT22;14204;51.262;5.488;2022-09-28T05:01:18;10.70;99.90
26537;DHT22;14204;51.262;5.488;2022-09-28T05:03:47;10.70;99.90
26537;DHT22;14204;51.262;5.488;2022-09-28T05:06:14;10.70;99.90
26537;DHT22;14204;51.262;5.488;2022-09-28T05:08:41;10.70;99.90
26537;DHT22;14204;51.262;5.488;2022-09-28T05:11:10;10.70;99.90
26537;DHT22;14204;51.262;5.488;2022-09-28T05:13:41;10.60;99.90
26537;DHT22;14204;51.262;5.488;2022-09-28T05:16:08;10.60;99.90
26537;DHT22;14204;51.262;5.488;2022-09-28T05:18:34;10.60;99.90
26537;DHT22;14204;51.262;5.488;2022-09-28T05:21:00;10.60;99.90
26537;DHT22;14204;51.262;5.488;2022-09-28T05:23:26;10.50;99.90
26537;DHT22;14204;51.262;5.488;2022-09-28T05:25:52;10.40;99.90
26537;DHT22;14204;51.262;5.488;2022-09-28T05:28:23;10.50;99.90
26537;DHT22;14204;51.262;5.488;2022-09-28T05:30:50;10.50;99.90
26537;DHT22;14204;51.262;5.488;2022-09-28T05:33:16;10.50;99.90
26537;DHT22;14204;51.262;5.488;2022-09-28T05:35:42;10.50;99.90
26537;DHT22;14204;51.262;5.488;2022-09-28T05:38:07;10.50;99.90
26537;DHT22;14204;51.262;5.488;2022-09-28T05:40:33;10.50;99.90
26537;DHT22;14204;51.262;5.488;2022-09-28T05:42:59;10.50;99.90
26537;DHT22;14204;51.262;5.488;2022-09-28T05:45:26;10.40;99.90
26537;DHT22;14204;51.262;5.488;2022-09-28T05:47:52;10.40;99.90
26537;DHT22;14204;51.262;5.488;2022-09-28T05:50:18;10.40;99.90
26537;DHT22;14204;51.262;5.488;2022-09-28T05:52:43;10.50;99.90
26537;DHT22;14204;51.262;5.488;2022-09-28T05:55:09;10.50;99.90
26537;DHT22;14204;51.262;5.488;2022-09-28T05:57:35;10.50;99.90
26537;DHT22;14204;51.262;5.488;2022-09-28T06:00:03;10.60;99.90
26537;DHT22;14204;51.262;5.488;2022-09-28T06:02:28;10.50;99.90
26537;DHT22;14204;51.262;5.488;2022-09-28T06:04:54;10.50;99.90
26537;DHT22;14204;51.262;5.488;2022-09-28T06:07:20;10.50;99.90
26537;DHT22;14204;51.262;5.488;2022-09-28T06:09:47;10.50;99.90
26537;DHT22;14204;51.262;5.488;2022-09-28T06:12:12;10.50;99.90
26537;DHT22;14204;51.262;5.488;2022-09-28T06:14:40;10.60;99.90
26537;DHT22;14204;51.262;5.488;2022-09-28T06:17:05;10.60;99.90
26537;DHT22;14204;51.262;5.488;2022-09-28T06:19:31;10.50;99.90
26537;DHT22;14204;51.262;5.488;2022-09-28T06:21:57;10.60;99.90
26537;DHT22;14204;51.262;5.488;2022-09-28T06:24:23;10.60;99.90
26537;DHT22;14204;51.262;5.488;2022-09-28T06:26:49;10.60;99.90
26537;DHT22;14204;51.262;5.488;2022-09-28T06:29:14;10.60;99.90
26537;DHT22;14204;51.262;5.488;2022-09-28T06:31:44;10.60;99.90
26537;DHT22;14204;51.262;5.488;2022-09-28T06:34:10;10.60;99.90
26537;DHT22;14204;51.262;5.488;2022-09-28T06:36:37;10.60;99.90
26537;DHT22;14204;51.262;5.488;2022-09-28T06:39:03;10.60;99.90
26537;DHT22;14204;51.262;5.488;2022-09-28T06:41:29;10.50;99.90
26537;DHT22;14204;51.262;5.488;2022-09-28T06:43:54;10.60;99.90
26537;DHT22;14204;51.262;5.488;2022-09-28T06:46:20;10.60;99.90
26537;DHT22;14204;51.262;5.488;2022-09-28T06:48:46;10.50;99.90
26537;DHT22;14204;51.262;5.488;2022-09-28T06:51:12;10.50;99.90
26537;DHT22;14204;51.262;5.488;2022-09-28T06:53:38;10.50;99.90
26537;DHT22;14204;51.262;5.488;2022-09-28T06:56:04;10.50;99.90
26537;DHT22;14204;51.262;5.488;2022-09-28T06:58:31;10.50;99.90
26537;DHT22;14204;51.262;5.488;2022-09-28T07:00:57;10.50;99.90
26537;DHT22;14204;51.262;5.488;2022-09-28T07:03:26;10.50;99.90
26537;DHT22;14204;51.262;5.488;2022-09-28T07:05:53;10.50;99.90
26537;DHT22;14204;51.262;5.488;2022-09-28T07:08:21;10.60;99.90
26537;DHT22;14204;51.262;5.488;2022-09-28T07:10:50;10.60;99.90
26537;DHT22;14204;51.262;5.488;2022-09-28T07:13:21;10.60;99.90
26537;DHT22;14204;51.262;5.488;2022-09-28T07:15:47;10.60;99.90
26537;DHT22;14204;51.262;5.488;2022-09-28T07:18:13;10.60;99.90
26537;DHT22;14204;51.262;5.488;2022-09-28T07:20:38;10.60;99.90
26537;DHT22;14204;51.262;5.488;2022-09-28T07:23:05;10.60;99.90
26537;DHT22;14204;51.262;5.488;2022-09-28T07:25:33;10.60;99.90
26537;DHT22;14204;51.262;5.488;2022-09-28T07:28:03;10.60;99.90
26537;DHT22;14204;51.262;5.488;2022-09-28T07:30:31;10.70;99.90
26537;DHT22;14204;51.262;5.488;2022-09-28T07:32:59;10.70;99.90
26537;DHT22;14204;51.262;5.488;2022-09-28T07:35:24;10.70;99.90
26537;DHT22;14204;51.262;5.488;2022-09-28T07:37:58;10.70;99.90
26537;DHT22;14204;51.262;5.488;2022-09-28T07:40:25;10.70;99.90
26537;DHT22;14204;51.262;5.488;2022-09-28T07:43:10;10.80;99.90
26537;DHT22;14204;51.262;5.488;2022-09-28T07:45:37;10.80;99.90
26537;DHT22;14204;51.262;5.488;2022-09-28T07:48:03;10.90;99.90
26537;DHT22;14204;51.262;5.488;2022-09-28T07:50:30;11.00;99.90
26537;DHT22;14204;51.262;5.488;2022-09-28T07:52:56;11.10;99.90
26537;DHT22;14204;51.262;5.488;2022-09-28T07:55:23;11.10;99.90
26537;DHT22;14204;51.262;5.488;2022-09-28T07:57:56;11.10;99.90
26537;DHT22;14204;51.262;5.488;2022-09-28T08:00:26;11.10;99.90
26537;DHT22;14204;51.262;5.488;2022-09-28T08:02:51;11.20;99.90
26537;DHT22;14204;51.262;5.488;2022-09-28T08:05:17;11.20;99.90
26537;DHT22;14204;51.262;5.488;2022-09-28T08:07:43;11.30;99.90
26537;DHT22;14204;51.262;5.488;2022-09-28T08:10:10;11.30;99.90
26537;DHT22;14204;51.262;5.488;2022-09-28T08:12:35;11.30;99.90
26537;DHT22;14204;51.262;5.488;2022-09-28T08:15:05;11.40;99.90
26537;DHT22;14204;51.262;5.488;2022-09-28T08:17:36;11.50;99.90
26537;DHT22;14204;51.262;5.488;2022-09-28T08:20:02;11.50;99.90
26537;DHT22;14204;51.262;5.488;2022-09-28T08:22:46;11.60;99.90
26537;DHT22;14204;51.262;5.488;2022-09-28T08:25:12;11.60;99.90
26537;DHT22;14204;51.262;5.488;2022-09-28T08:27:37;11.60;99.90
26537;DHT22;14204;51.262;5.488;2022-09-28T08:30:03;11.70;99.90
26537;DHT22;14204;51.262;5.488;2022-09-28T08:32:29;11.70;99.90
26537;DHT22;14204;51.262;5.488;2022-09-28T08:34:55;11.80;99.90
26537;DHT22;14204;51.262;5.488;2022-09-28T08:37:21;11.90;99.90
26537;DHT22;14204;51.262;5.488;2022-09-28T08:39:46;11.90;99.90
26537;DHT22;14204;51.262;5.488;2022-09-28T08:42:32;11.90;99.90
26537;DHT22;14204;51.262;5.488;2022-09-28T08:45:05;11.80;99.90
26537;DHT22;14204;51.262;5.488;2022-09-28T08:47:44;11.90;99.90
26537;DHT22;14204;51.262;5.488;2022-09-28T08:50:31;12.00;99.90
26537;DHT22;14204;51.262;5.488;2022-09-28T08:53:04;12.10;99.90
26537;DHT22;14204;51.262;5.488;2022-09-28T08:55:34;12.20;99.90
26537;DHT22;14204;51.262;5.488;2022-09-28T08:58:13;12.20;99.90
26537;DHT22;14204;51.262;5.488;2022-09-28T09:00:47;12.20;99.90
26537;DHT22;14204;51.262;5.488;2022-09-28T09:03:36;12.40;99.90
26537;DHT22;14204;51.262;5.488;2022-09-28T09:46:10;13.90;99.90
26537;DHT22;14204;51.262;5.488;2022-09-28T09:49:20;14.00;99.90
26537;DHT22;14204;51.262;5.488;2022-09-28T09:54:34;14.50;99.90
26537;DHT22;14204;51.262;5.488;2022-09-28T09:57:11;14.60;99.90
26537;DHT22;14204;51.262;5.488;2022-09-28T09:59:40;14.80;99.90
26537;DHT22;14204;51.262;5.488;2022-09-28T10:02:30;15.00;99.90
26537;DHT22;14204;51.262;5.488;2022-09-28T10:10:28;14.90;99.90
26537;DHT22;14204;51.262;5.488;2022-09-28T10:12:55;14.90;99.90
26537;DHT22;14204;51.262;5.488;2022-09-28T10:15:29;14.90;99.90
26537;DHT22;14204;51.262;5.488;2022-09-28T10:17:57;15.10;99.90
26537;DHT22;14204;51.262;5.488;2022-09-28T10:20:32;15.10;99.90
26537;DHT22;14204;51.262;5.488;2022-09-28T10:22:59;15.30;99.90
26537;DHT22;14204;51.262;5.488;2022-09-28T10:25:30;15.40;99.90
26537;DHT22;14204;51.262;5.488;2022-09-28T10:27:59;15.50;99.90
26537;DHT22;14204;51.262;5.488;2022-09-28T10:30:25;15.50;99.90
26537;DHT22;14204;51.262;5.488;2022-09-28T10:32:53;15.80;99.90
26537;DHT22;14204;51.262;5.488;2022-09-28T10:35:28;15.60;99.90
26537;DHT22;14204;51.262;5.488;2022-09-28T10:40:45;16.10;99.90
26537;DHT22;14204;51.262;5.488;2022-09-28T10:43:21;16.00;99.90
26537;DHT22;14204;51.262;5.488;2022-09-28T10:45:58;16.00;99.90
26537;DHT22;14204;51.262;5.488;2022-09-28T10:48:25;16.10;99.90
26537;DHT22;14204;51.262;5.488;2022-09-28T10:51:18;16.00;99.90
26537;DHT22;14204;51.262;5.488;2022-09-28T10:54:01;15.90;99.90
26537;DHT22;14204;51.262;5.488;2022-09-28T10:56:29;15.80;99.90
26537;DHT22;14204;51.262;5.488;2022-09-28T10:58:59;15.80;99.90
26537;DHT22;14204;51.262;5.488;2022-09-28T11:01:29;15.80;99.90
26537;DHT22;14204;51.262;5.488;2022-09-28T11:06:25;16.10;99.90
26537;DHT22;14204;51.262;5.488;2022-09-28T11:08:52;16.30;99.90
26537;DHT22;14204;51.262;5.488;2022-09-28T11:11:18;16.30;99.90
26537;DHT22;14204;51.262;5.488;2022-09-28T11:13:50;16.50;99.90
26537;DHT22;14204;51.262;5.488;2022-09-28T11:16:27;16.40;99.90
26537;DHT22;14204;51.262;5.488;2022-09-28T11:18:55;16.20;99.90
26537;DHT22;14204;51.262;5.488;2022-09-28T11:21:26;16.10;99.90
26537;DHT22;14204;51.262;5.488;2022-09-28T11:26:41;16.10;99.90
26537;DHT22;14204;51.262;5.488;2022-09-28T11:31:47;16.50;99.90
26537;DHT22;14204;51.262;5.488;2022-09-28T11:34:19;16.70;99.90
26537;DHT22;14204;51.262;5.488;2022-09-28T11:39:44;17.00;99.90
26537;DHT22;14204;51.262;5.488;2022-09-28T11:43:12;16.90;99.90
26537;DHT22;14204;51.262;5.488;2022-09-28T11:48:15;16.30;99.90
26537;DHT22;14204;51.262;5.488;2022-09-28T11:56:05;16.10;99.90
26537;DHT22;14204;51.262;5.488;2022-09-28T11:58:45;16.10;99.90
26537;DHT22;14204;51.262;5.488;2022-09-28T12:01:27;16.10;99.90
26537;DHT22;14204;51.262;5.488;2022-09-28T12:07:05;16.20;99.90
26537;DHT22;14204;51.262;5.488;2022-09-28T12:12:47;16.30;99.90
26537;DHT22;14204;51.262;5.488;2022-09-28T12:15:21;16.40;99.90
26537;DHT22;14204;51.262;5.488;2022-09-28T12:17:59;16.70;99.90
26537;DHT22;14204;51.262;5.488;2022-09-28T12:20:32;16.80;99.90
26537;DHT22;14204;51.262;5.488;2022-09-28T12:25:27;16.70;99.90
26537;DHT22;14204;51.262;5.488;2022-09-28T12:28:04;16.60;99.90
26537;DHT22;14204;51.262;5.488;2022-09-28T12:30:36;16.50;99.90
26537;DHT22;14204;51.262;5.488;2022-09-28T12:33:07;16.70;99.90
26537;DHT22;14204;51.262;5.488;2022-09-28T12:38:58;17.10;99.90
26537;DHT22;14204;51.262;5.488;2022-09-28T12:42:04;17.40;99.90
26537;DHT22;14204;51.262;5.488;2022-09-28T12:44:51;17.70;99.90
26537;DHT22;14204;51.262;5.488;2022-09-28T12:50:33;17.70;99.90
26537;DHT22;14204;51.262;5.488;2022-09-28T12:56:03;17.80;99.90
26537;DHT22;14204;51.262;5.488;2022-09-28T13:01:37;17.80;99.90
26537;DHT22;14204;51.262;5.488;2022-09-28T13:15:28;18.00;99.90
26537;DHT22;14204;51.262;5.488;2022-09-28T13:18:13;17.80;99.90
26537;DHT22;14204;51.262;5.488;2022-09-28T13:21:03;17.70;99.90
26537;DHT22;14204;51.262;5.488;2022-09-28T13:23:41;17.60;99.90
26537;DHT22;14204;51.262;5.488;2022-09-28T13:26:11;17.50;99.90
26537;DHT22;14204;51.262;5.488;2022-09-28T13:28:41;17.50;99.90
26537;DHT22;14204;51.262;5.488;2022-09-28T13:31:08;17.40;99.90
26537;DHT22;14204;51.262;5.488;2022-09-28T13:33:37;17.20;99.90
26537;DHT22;14204;51.262;5.488;2022-09-28T13:38:49;16.90;99.90
26537;DHT22;14204;51.262;5.488;2022-09-28T13:41:22;16.70;99.90
26537;DHT22;14204;51.262;5.488;2022-09-28T13:58:04;15.90;99.90
26537;DHT22;14204;51.262;5.488;2022-09-28T14:03:40;15.90;99.90
26537;DHT22;14204;51.262;5.488;2022-09-28T14:06:26;15.90;99.90
26537;DHT22;14204;51.262;5.488;2022-09-28T14:16:43;15.70;99.90
26537;DHT22;14204;51.262;5.488;2022-09-28T14:32:40;15.70;99.90
26537;DHT22;14204;51.262;5.488;2022-09-28T14:35:29;15.70;99.90
26537;DHT22;14204;51.262;5.488;2022-09-28T14:38:18;15.70;99.90
26537;DHT22;14204;51.262;5.488;2022-09-28T14:41:22;15.80;99.90
26537;DHT22;14204;51.262;5.488;2022-09-28T14:56:20;15.90;99.90
26537;DHT22;14204;51.262;5.488;2022-09-28T14:58:52;15.90;99.90
26537;DHT22;14204;51.262;5.488;2022-09-28T15:01:20;15.80;99.90
26537;DHT22;14204;51.262;5.488;2022-09-28T15:03:50;15.70;99.90
26537;DHT22;14204;51.262;5.488;2022-09-28T15:06:16;15.60;99.90
26537;DHT22;14204;51.262;5.488;2022-09-28T15:08:44;15.60;99.90
26537;DHT22;14204;51.262;5.488;2022-09-28T15:11:24;15.50;99.90
26537;DHT22;14204;51.262;5.488;2022-09-28T15:13:50;15.50;99.90
26537;DHT22;14204;51.262;5.488;2022-09-28T15:16:29;15.40;99.90
26537;DHT22;14204;51.262;5.488;2022-09-28T15:21:43;15.40;99.90
26537;DHT22;14204;51.262;5.488;2022-09-28T15:24:28;15.40;99.90
26537;DHT22;14204;51.262;5.488;2022-09-28T15:26:56;15.40;99.90
26537;DHT22;14204;51.262;5.488;2022-09-28T15:29:23;15.40;99.90
26537;DHT22;14204;51.262;5.488;2022-09-28T15:31:50;15.40;99.90
26537;DHT22;14204;51.262;5.488;2022-09-28T15:34:35;15.40;99.90
26537;DHT22;14204;51.262;5.488;2022-09-28T15:37:28;15.40;99.90
26537;DHT22;14204;51.262;5.488;2022-09-28T15:39:55;15.40;99.90
26537;DHT22;14204;51.262;5.488;2022-09-28T15:42:22;15.30;99.90
26537;DHT22;14204;51.262;5.488;2022-09-28T15:50:36;15.40;99.90
26537;DHT22;14204;51.262;5.488;2022-09-28T15:53:04;15.40;99.90
26537;DHT22;14204;51.262;5.488;2022-09-28T15:55:43;15.40;99.90
26537;DHT22;14204;51.262;5.488;2022-09-28T15:58:19;15.40;99.90
26537;DHT22;14204;51.262;5.488;2022-09-28T16:00:50;15.40;99.90
26537;DHT22;14204;51.262;5.488;2022-09-28T16:03:35;15.40;99.90
26537;DHT22;14204;51.262;5.488;2022-09-28T16:06:06;15.40;99.90
26537;DHT22;14204;51.262;5.488;2022-09-28T16:08:40;15.30;99.90
26537;DHT22;14204;51.262;5.488;2022-09-28T16:11:24;15.30;99.90
26537;DHT22;14204;51.262;5.488;2022-09-28T16:16:46;15.20;99.90
26537;DHT22;14204;51.262;5.488;2022-09-28T16:19:35;15.30;99.90
26537;DHT22;14204;51.262;5.488;2022-09-28T16:22:06;15.20;99.90
26537;DHT22;14204;51.262;5.488;2022-09-28T16:24:35;15.20;99.90
26537;DHT22;14204;51.262;5.488;2022-09-28T16:27:21;15.10;99.90
26537;DHT22;14204;51.262;5.488;2022-09-28T16:30:18;15.10;99.90
26537;DHT22;14204;51.262;5.488;2022-09-28T16:38:13;15.00;99.90
26537;DHT22;14204;51.262;5.488;2022-09-28T16:40:44;15.00;99.90
26537;DHT22;14204;51.262;5.488;2022-09-28T16:43:34;15.00;99.90
26537;DHT22;14204;51.262;5.488;2022-09-28T16:46:05;15.00;99.90
26537;DHT22;14204;51.262;5.488;2022-09-28T16:48:34;14.90;99.90
26537;DHT22;14204;51.262;5.488;2022-09-28T16:51:00;14.90;99.90
26537;DHT22;14204;51.262;5.488;2022-09-28T16:53:26;14.90;99.90
26537;DHT22;14204;51.262;5.488;2022-09-28T16:56:11;14.80;99.90
26537;DHT22;14204;51.262;5.488;2022-09-28T16:58:37;14.80;99.90
26537;DHT22;14204;51.262;5.488;2022-09-28T17:01:04;14.70;99.90
26537;DHT22;14204;51.262;5.488;2022-09-28T17:03:33;14.60;99.90
26537;DHT22;14204;51.262;5.488;2022-09-28T17:05:58;14.50;99.90
26537;DHT22;14204;51.262;5.488;2022-09-28T17:08:24;14.50;99.90
26537;DHT22;14204;51.262;5.488;2022-09-28T17:10:55;14.50;99.90
26537;DHT22;14204;51.262;5.488;2022-09-28T17:13:23;14.40;99.90
26537;DHT22;14204;51.262;5.488;2022-09-28T17:16:11;14.40;99.90
26537;DHT22;14204;51.262;5.488;2022-09-28T17:18:37;14.50;99.90
26537;DHT22;14204;51.262;5.488;2022-09-28T17:21:08;14.50;99.90
26537;DHT22;14204;51.262;5.488;2022-09-28T17:23:34;14.40;99.90
26537;DHT22;14204;51.262;5.488;2022-09-28T17:26:01;14.40;99.90
26537;DHT22;14204;51.262;5.488;2022-09-28T17:28:35;14.40;99.90
26537;DHT22;14204;51.262;5.488;2022-09-28T17:31:02;14.30;99.90
26537;DHT22;14204;51.262;5.488;2022-09-28T17:33:28;14.30;99.90
26537;DHT22;14204;51.262;5.488;2022-09-28T17:35:59;14.20;99.90
26537;DHT22;14204;51.262;5.488;2022-09-28T17:38:25;14.20;99.90
26537;DHT22;14204;51.262;5.488;2022-09-28T17:40:51;14.10;99.90
26537;DHT22;14204;51.262;5.488;2022-09-28T17:43:16;14.00;99.90
26537;DHT22;14204;51.262;5.488;2022-09-28T17:45:44;14.00;99.90
26537;DHT22;14204;51.262;5.488;2022-09-28T17:48:15;14.00;99.90
26537;DHT22;14204;51.262;5.488;2022-09-28T17:50:42;14.00;99.90
26537;DHT22;14204;51.262;5.488;2022-09-28T17:53:08;13.90;99.90
26537;DHT22;14204;51.262;5.488;2022-09-28T17:55:35;13.80;99.90
26537;DHT22;14204;51.262;5.488;2022-09-28T17:58:20;13.70;99.90
26537;DHT22;14204;51.262;5.488;2022-09-28T18:00:48;13.70;99.90
26537;DHT22;14204;51.262;5.488;2022-09-28T18:03:22;13.70;99.90
26537;DHT22;14204;51.262;5.488;2022-09-28T18:05:51;13.60;99.90
26537;DHT22;14204;51.262;5.488;2022-09-28T18:08:22;13.50;99.90
26537;DHT22;14204;51.262;5.488;2022-09-28T18:10:49;13.60;99.90
26537;DHT22;14204;51.262;5.488;2022-09-28T18:13:15;13.50;99.90
26537;DHT22;14204;51.262;5.488;2022-09-28T18:15:41;13.50;99.90
26537;DHT22;14204;51.262;5.488;2022-09-28T18:18:07;13.40;99.90
26537;DHT22;14204;51.262;5.488;2022-09-28T18:20:34;13.40;99.90
26537;DHT22;14204;51.262;5.488;2022-09-28T18:23:00;13.40;99.90
26537;DHT22;14204;51.262;5.488;2022-09-28T18:25:26;13.40;99.90
26537;DHT22;14204;51.262;5.488;2022-09-28T18:27:51;13.40;99.90
26537;DHT22;14204;51.262;5.488;2022-09-28T18:30:25;13.30;99.90
26537;DHT22;14204;51.262;5.488;2022-09-28T18:32:51;13.30;99.90
26537;DHT22;14204;51.262;5.488;2022-09-28T18:35:17;13.30;99.90
26537;DHT22;14204;51.262;5.488;2022-09-28T18:37:43;13.20;99.90
26537;DHT22;14204;51.262;5.488;2022-09-28T18:40:10;13.10;99.90
26537;DHT22;14204;51.262;5.488;2022-09-28T18:42:37;13.00;99.90
26537;DHT22;14204;51.262;5.488;2022-09-28T18:45:06;13.00;99.90
26537;DHT22;14204;51.262;5.488;2022-09-28T18:47:32;13.00;99.90
26537;DHT22;14204;51.262;5.488;2022-09-28T18:49:59;13.00;99.90
26537;DHT22;14204;51.262;5.488;2022-09-28T18:52:25;13.00;99.90
26537;DHT22;14204;51.262;5.488;2022-09-28T18:54:51;13.00;99.90
26537;DHT22;14204;51.262;5.488;2022-09-28T18:57:17;13.00;99.90
26537;DHT22;14204;51.262;5.488;2022-09-28T18:59:44;13.00;99.90
26537;DHT22;14204;51.262;5.488;2022-09-28T19:02:11;13.00;99.90
26537;DHT22;14204;51.262;5.488;2022-09-28T19:04:38;12.90;99.90
26537;DHT22;14204;51.262;5.488;2022-09-28T19:07:04;12.90;99.90
26537;DHT22;14204;51.262;5.488;2022-09-28T19:09:29;12.90;99.90
26537;DHT22;14204;51.262;5.488;2022-09-28T19:11:55;12.90;99.90
26537;DHT22;14204;51.262;5.488;2022-09-28T19:14:20;12.90;99.90
26537;DHT22;14204;51.262;5.488;2022-09-28T19:16:46;12.80;99.90
26537;DHT22;14204;51.262;5.488;2022-09-28T19:19:14;12.80;99.90